createdAt,value
2022-09-07T00:00:54.818Z,21.60
2022-09-07T00:03:24.055Z,25.10
2022-09-07T00:05:53.330Z,21.33
2022-09-07T00:08:23.137Z,22.50
2022-09-07T00:10:56.332Z,29.43
2022-09-07T00:13:27.587Z,19.17
2022-09-07T00:15:56.119Z,23.50
2022-09-07T00:18:24.292Z,21.77
2022-09-07T00:20:59.415Z,18.67
2022-09-07T00:23:29.361Z,22.53
2022-09-07T00:26:01.528Z,21.00
2022-09-07T00:28:32.088Z,23.97
2022-09-07T00:31:00.449Z,19.87
2022-09-07T00:33:28.806Z,27.00
2022-09-07T00:35:56.810Z,28.53
2022-09-07T00:38:24.979Z,28.53
2022-09-07T00:40:53.260Z,22.50
2022-09-07T00:43:34.082Z,21.30
2022-09-07T00:46:02.829Z,24.87
2022-09-07T00:48:36.632Z,22.23
2022-09-07T00:51:09.067Z,27.00
2022-09-07T00:53:41.762Z,23.40
2022-09-07T00:56:11.621Z,22.93
2022-09-07T00:58:44.055Z,23.90
2022-09-07T01:01:12.897Z,28.30
2022-09-07T01:03:44.429Z,23.70
2022-09-07T01:06:17.679Z,23.30
2022-09-07T01:08:48.275Z,26.50
2022-09-07T01:11:16.885Z,22.60
2022-09-07T01:13:48.155Z,22.80
2022-09-07T01:16:27.899Z,24.33
2022-09-07T01:19:07.681Z,23.30
2022-09-07T01:21:50.254Z,26.27
2022-09-07T01:24:38.811Z,20.30
2022-09-07T01:27:43.522Z,20.80
2022-09-07T01:30:15.701Z,24.03
2022-09-07T01:33:09.670Z,23.07
2022-09-07T01:35:45.436Z,27.80
2022-09-07T01:38:22.086Z,22.63
2022-09-07T01:40:56.118Z,26.23
2022-09-07T01:43:33.236Z,32.13
2022-09-07T01:46:06.891Z,26.07
2022-09-07T01:48:39.064Z,24.90
2022-09-07T01:51:13.063Z,24.27
2022-09-07T01:53:45.660Z,24.83
2022-09-07T01:56:16.966Z,26.00
2022-09-07T01:58:49.152Z,20.20
2022-09-07T02:01:24.594Z,20.23
2022-09-07T02:03:56.345Z,16.93
2022-09-07T02:06:31.247Z,20.07
2022-09-07T02:09:03.281Z,25.30
2022-09-07T02:11:37.571Z,23.23
2022-09-07T02:14:10.665Z,27.80
2022-09-07T02:16:44.558Z,24.73
2022-09-07T02:19:17.443Z,23.27
2022-09-07T02:21:49.319Z,23.23
2022-09-07T02:24:21.195Z,18.80
2022-09-07T02:26:51.226Z,21.47
2022-09-07T02:29:19.259Z,23.83
2022-09-07T02:31:51.106Z,24.87
2022-09-07T02:34:19.732Z,24.20
2022-09-07T02:36:50.023Z,31.97
2022-09-07T02:39:18.776Z,25.77
2022-09-07T02:41:47.278Z,27.63
2022-09-07T02:44:18.392Z,28.33
2022-09-07T02:47:12.710Z,23.17
2022-09-07T02:50:18.798Z,21.80
2022-09-07T02:52:57.725Z,22.13
2022-09-07T02:55:35.184Z,24.60
2022-09-07T02:58:16.550Z,23.33
2022-09-07T03:00:51.819Z,30.20
2022-09-07T03:03:27.809Z,23.87
2022-09-07T03:06:00.464Z,25.10
2022-09-07T03:08:33.478Z,23.80
2022-09-07T03:11:02.324Z,25.37
2022-09-07T03:13:30.976Z,24.80
2022-09-07T03:15:59.666Z,27.57
2022-09-07T03:18:29.610Z,25.40
2022-09-07T03:20:57.698Z,33.00
2022-09-07T03:23:25.898Z,27.30
2022-09-07T03:25:54.221Z,24.80
2022-09-07T03:28:22.292Z,28.00
2022-09-07T03:30:50.412Z,28.10
2022-09-07T03:33:18.651Z,29.67
2022-09-07T03:35:58.637Z,30.17
2022-09-07T03:38:26.827Z,34.73
2022-09-07T03:41:02.831Z,38.53
2022-09-07T03:43:31.775Z,36.67
2022-09-07T03:46:01.425Z,36.63
2022-09-07T03:48:31.160Z,33.50
2022-09-07T03:51:02.562Z,36.07
2022-09-07T03:53:32.562Z,39.00
2022-09-07T03:56:02.292Z,43.70
2022-09-07T03:58:32.505Z,42.07
2022-09-07T04:01:02.053Z,33.20
2022-09-07T04:03:30.150Z,35.57
2022-09-07T04:06:01.350Z,37.37
2022-09-07T04:08:30.589Z,40.67
2022-09-07T04:10:59.416Z,39.47
2022-09-07T04:13:28.502Z,35.90
2022-09-07T04:15:57.136Z,35.73
2022-09-07T04:18:26.011Z,37.90
2022-09-07T04:20:54.145Z,33.57
2022-09-07T04:23:23.565Z,33.07
2022-09-07T04:25:53.291Z,36.60
2022-09-07T04:28:22.286Z,42.73
2022-09-07T04:30:50.480Z,45.93
2022-09-07T04:33:18.759Z,95.60
2022-09-07T04:35:46.780Z,70.87
2022-09-07T04:38:17.423Z,90.13
2022-09-07T04:40:46.831Z,61.90
2022-09-07T04:43:14.904Z,40.70
2022-09-07T04:45:44.448Z,54.43
2022-09-07T04:48:12.555Z,64.00
2022-09-07T04:50:40.581Z,42.17
2022-09-07T04:53:08.611Z,37.97
2022-09-07T04:55:36.726Z,37.33
2022-09-07T04:58:06.162Z,40.20
2022-09-07T05:00:34.200Z,48.43
2022-09-07T05:03:02.279Z,42.80
2022-09-07T05:05:30.409Z,58.40
2022-09-07T05:07:58.575Z,34.77
2022-09-07T05:10:26.668Z,34.00
2022-09-07T05:12:54.725Z,37.00
2022-09-07T05:15:24.674Z,34.87
2022-09-07T05:17:52.957Z,37.83
2022-09-07T05:20:21.414Z,40.50
2022-09-07T05:22:49.664Z,36.50
2022-09-07T05:25:17.782Z,35.30
2022-09-07T05:27:46.007Z,37.67
2022-09-07T05:33:05.264Z,61.37
2022-09-07T05:35:33.314Z,50.97
2022-09-07T05:38:01.378Z,33.30
2022-09-07T05:40:36.087Z,38.17
2022-09-07T05:43:06.606Z,47.43
2022-09-07T05:45:34.848Z,42.80
2022-09-07T05:48:04.439Z,40.60
2022-09-07T05:50:32.620Z,35.80
2022-09-07T05:53:00.719Z,34.30
2022-09-07T05:55:30.319Z,33.90
2022-09-07T05:57:58.770Z,28.63
2022-09-07T06:00:27.234Z,34.17
2022-09-07T06:02:55.295Z,38.17
2022-09-07T06:05:24.746Z,32.10
2022-09-07T06:07:53.061Z,33.90
2022-09-07T06:13:09.789Z,27.37
2022-09-07T06:15:37.824Z,25.83
2022-09-07T06:18:05.873Z,27.47
2022-09-07T06:20:35.295Z,34.33
2022-09-07T06:23:03.342Z,25.53
2022-09-07T06:25:31.456Z,27.13
2022-09-07T06:27:59.634Z,29.40
2022-09-07T06:30:27.783Z,26.40
2022-09-07T06:32:55.832Z,28.77
2022-09-07T06:35:23.851Z,26.80
2022-09-07T06:37:53.327Z,27.33
2022-09-07T06:40:21.390Z,28.63
2022-09-07T06:42:49.439Z,30.53
2022-09-07T06:45:17.659Z,29.43
2022-09-07T06:47:45.757Z,32.67
2022-09-07T06:50:13.994Z,34.27
2022-09-07T06:55:31.639Z,32.87
2022-09-07T06:57:59.674Z,32.60
2022-09-07T07:00:27.903Z,33.00
2022-09-07T07:02:56.061Z,31.10
2022-09-07T07:05:24.281Z,35.30
2022-09-07T07:07:52.371Z,35.93
2022-09-07T07:10:24.530Z,36.97
2022-09-07T07:12:57.987Z,38.50
2022-09-07T07:15:28.852Z,34.90
2022-09-07T07:18:02.563Z,36.60
2022-09-07T07:20:43.092Z,37.30
2022-09-07T07:23:13.223Z,42.70
2022-09-07T07:25:41.437Z,40.13
2022-09-07T07:31:01.828Z,36.47
2022-09-07T07:33:33.033Z,41.13
2022-09-07T07:36:12.524Z,40.60
2022-09-07T07:44:16.781Z,32.43
2022-09-07T07:46:47.848Z,29.43
2022-09-07T07:49:15.962Z,30.67
2022-09-07T07:54:36.046Z,31.20
2022-09-07T07:57:04.317Z,28.43
2022-09-07T07:59:33.727Z,26.77
2022-09-07T08:02:04.535Z,29.30
2022-09-07T08:04:33.826Z,33.43
2022-09-07T08:07:08.320Z,31.03
2022-09-07T08:09:38.081Z,33.80
2022-09-07T08:12:06.230Z,46.10
2022-09-07T08:14:40.666Z,35.07
2022-09-07T08:17:09.703Z,35.40
2022-09-07T08:19:37.997Z,37.90
2022-09-07T08:22:06.818Z,34.10
2022-09-07T08:24:35.150Z,38.63
2022-09-07T08:27:04.570Z,41.17
2022-09-07T08:29:35.215Z,40.83
2022-09-07T08:32:06.479Z,36.33
2022-09-07T08:34:36.732Z,46.00
2022-09-07T08:37:05.127Z,35.10
2022-09-07T08:39:33.252Z,36.90
2022-09-07T08:42:14.438Z,37.40
2022-09-07T08:44:48.166Z,32.13
2022-09-07T08:47:26.183Z,30.77
2022-09-07T08:50:03.032Z,32.43
2022-09-07T08:52:43.195Z,33.57
2022-09-07T08:55:16.965Z,35.40
2022-09-07T08:57:50.154Z,32.90
2022-09-07T09:00:20.176Z,32.47
2022-09-07T09:05:46.678Z,31.27
2022-09-07T09:08:29.904Z,28.70
2022-09-07T09:11:07.264Z,35.60
2022-09-07T09:13:48.474Z,25.30
2022-09-07T09:16:23.458Z,26.30
2022-09-07T09:19:06.242Z,25.00
2022-09-07T09:21:35.667Z,31.80
2022-09-07T09:24:15.037Z,32.07
2022-09-07T09:26:46.534Z,23.93
2022-09-07T09:29:15.875Z,26.70
2022-09-07T09:31:44.062Z,28.30
2022-09-07T09:34:15.451Z,25.20
2022-09-07T09:36:48.858Z,26.33
2022-09-07T09:39:27.732Z,26.27
2022-09-07T09:41:58.328Z,25.83
2022-09-07T09:44:34.067Z,21.97
2022-09-07T09:49:53.734Z,23.63
2022-09-07T09:52:29.814Z,20.27
2022-09-07T09:55:23.278Z,23.10
2022-09-07T10:04:00.895Z,21.13
2022-09-07T10:06:32.473Z,17.40
2022-09-07T10:09:03.052Z,23.80
2022-09-07T10:14:35.406Z,23.43
2022-09-07T10:17:12.621Z,19.83
2022-09-07T10:19:42.811Z,17.60
2022-09-07T10:22:31.982Z,20.30
2022-09-07T10:25:01.757Z,36.23
2022-09-07T10:27:33.046Z,37.80
2022-09-07T10:30:01.907Z,43.37
2022-09-07T10:32:51.603Z,15.60
2022-09-07T10:35:26.614Z,19.47
2022-09-07T10:38:08.451Z,38.60
2022-09-07T10:40:40.550Z,12.57
2022-09-07T10:43:21.123Z,14.43
2022-09-07T10:46:56.361Z,12.80
2022-09-07T10:49:15.485Z,24.17
2022-09-07T10:51:53.945Z,11.93
2022-09-07T10:54:32.498Z,12.50
2022-09-07T10:57:10.201Z,10.33
2022-09-07T11:06:00.902Z,10.87
2022-09-07T11:14:28.507Z,10.97
2022-09-07T11:17:00.153Z,11.53
2022-09-07T11:19:36.958Z,11.30
2022-09-07T11:22:16.554Z,9.00
2022-09-07T11:25:29.182Z,8.70
2022-09-07T11:27:46.091Z,8.40
2022-09-07T11:30:20.800Z,14.40
2022-09-07T11:32:58.047Z,8.30
2022-09-07T11:35:35.117Z,9.37
2022-09-07T11:38:25.351Z,7.03
2022-09-07T11:41:20.394Z,13.27
2022-09-07T11:43:56.775Z,12.10
2022-09-07T11:46:33.193Z,8.80
2022-09-07T11:49:03.384Z,7.30
2022-09-07T11:51:41.004Z,8.23
2022-09-07T11:54:35.161Z,9.13
2022-09-07T11:57:26.331Z,11.90
2022-09-07T12:00:05.719Z,7.23
2022-09-07T12:03:01.173Z,8.47
2022-09-07T12:05:50.285Z,8.63
2022-09-07T12:08:35.554Z,8.13
2022-09-07T12:11:23.167Z,9.67
2022-09-07T12:14:07.772Z,6.73
2022-09-07T12:16:55.626Z,6.30
2022-09-07T12:19:25.634Z,6.33
2022-09-07T12:21:57.772Z,9.13
2022-09-07T12:24:44.428Z,8.20
2022-09-07T12:27:40.101Z,10.60
2022-09-07T12:30:44.679Z,5.37
2022-09-07T12:33:31.990Z,8.43
2022-09-07T12:36:01.103Z,12.23
2022-09-07T12:39:08.483Z,8.00
2022-09-07T12:41:48.261Z,8.57
2022-09-07T12:44:24.977Z,9.03
2022-09-07T12:46:59.552Z,6.90
2022-09-07T12:50:05.841Z,8.23
2022-09-07T12:53:11.219Z,8.60
2022-09-07T12:56:21.984Z,8.13
2022-09-07T12:59:11.925Z,7.53
2022-09-07T13:01:55.226Z,8.80
2022-09-07T13:04:49.930Z,9.13
2022-09-07T13:08:07.175Z,7.43
2022-09-07T13:10:37.885Z,9.80
2022-09-07T13:13:07.967Z,10.00
2022-09-07T13:15:41.347Z,11.47
2022-09-07T13:18:13.600Z,13.70
2022-09-07T13:20:41.847Z,10.23
2022-09-07T13:23:26.582Z,10.30
2022-09-07T13:26:00.701Z,7.10
2022-09-07T13:28:37.754Z,10.87
2022-09-07T13:31:33.442Z,10.27
2022-09-07T13:34:01.662Z,11.93
2022-09-07T13:36:37.730Z,11.53
2022-09-07T13:39:13.534Z,12.07
2022-09-07T13:41:47.995Z,8.70
2022-09-07T13:44:25.925Z,19.50
2022-09-07T13:47:13.110Z,11.60
2022-09-07T13:49:56.064Z,10.60
2022-09-07T13:52:37.010Z,11.77
2022-09-07T13:55:17.901Z,13.63
2022-09-07T13:57:57.301Z,13.53
2022-09-07T14:00:26.452Z,14.20
2022-09-07T14:02:56.993Z,19.67
2022-09-07T14:05:25.417Z,11.33
2022-09-07T14:07:53.670Z,17.90
2022-09-07T14:10:25.343Z,12.50
2022-09-07T14:12:55.390Z,18.10
2022-09-07T14:15:29.439Z,14.93
2022-09-07T14:18:05.204Z,15.40
2022-09-07T14:20:39.256Z,16.50
2022-09-07T14:23:13.351Z,18.20
2022-09-07T14:28:33.284Z,12.83
2022-09-07T14:31:01.817Z,13.67
2022-09-07T14:33:30.815Z,10.20
2022-09-07T14:36:00.192Z,13.60
2022-09-07T14:41:21.943Z,13.23
2022-09-07T14:43:55.797Z,10.93
2022-09-07T14:46:25.657Z,12.43
2022-09-07T14:48:55.781Z,17.33
2022-09-07T14:51:35.260Z,14.13
2022-09-07T14:54:11.644Z,9.93
2022-09-07T14:56:48.385Z,11.27
2022-09-07T14:59:39.170Z,14.63
2022-09-07T15:02:25.259Z,13.03
2022-09-07T15:05:17.903Z,12.50
2022-09-07T15:07:48.954Z,11.10
2022-09-07T15:10:31.548Z,10.93
2022-09-07T15:13:02.212Z,22.83
2022-09-07T15:15:32.991Z,12.20
2022-09-07T15:18:08.470Z,10.17
2022-09-07T15:20:40.846Z,11.80
2022-09-07T15:23:12.833Z,9.40
2022-09-07T15:25:46.493Z,13.70
2022-09-07T15:34:09.677Z,18.63
2022-09-07T15:36:38.999Z,14.47
2022-09-07T15:39:09.076Z,18.30
2022-09-07T15:41:37.122Z,14.50
2022-09-07T15:44:06.643Z,12.97
2022-09-07T15:46:36.711Z,12.73
2022-09-07T15:49:05.233Z,12.57
2022-09-07T15:54:21.508Z,15.07
2022-09-07T15:59:39.197Z,11.43
2022-09-07T16:03:04.605Z,15.57
2022-09-07T16:04:56.047Z,13.17
2022-09-07T16:08:24.945Z,19.40
2022-09-07T16:10:13.802Z,11.23
2022-09-07T16:15:31.491Z,9.10
2022-09-07T16:17:59.580Z,9.83
2022-09-07T16:20:31.965Z,14.77
2022-09-07T16:23:17.254Z,11.00
2022-09-07T16:25:57.208Z,10.33
2022-09-07T16:28:26.170Z,10.80
2022-09-07T16:30:56.376Z,11.53
2022-09-07T16:33:32.809Z,20.90
2022-09-07T16:36:07.219Z,12.00
2022-09-07T16:38:51.129Z,15.43
2022-09-07T16:41:21.235Z,12.90
2022-09-07T16:43:49.432Z,9.60
2022-09-07T16:46:20.626Z,11.90
2022-09-07T16:48:49.093Z,13.33
2022-09-07T16:51:19.656Z,21.73
2022-09-07T16:53:48.833Z,13.23
2022-09-07T16:56:18.625Z,14.17
2022-09-07T16:58:48.641Z,9.53
2022-09-07T17:01:19.975Z,13.27
2022-09-07T17:03:49.518Z,10.37
2022-09-07T17:06:19.362Z,17.97
2022-09-07T17:08:48.218Z,10.80
2022-09-07T17:11:19.304Z,12.53
2022-09-07T17:13:48.400Z,15.20
2022-09-07T17:16:20.640Z,20.20
2022-09-07T17:21:39.777Z,13.23
2022-09-07T17:24:09.883Z,103.87
2022-09-07T17:26:38.613Z,28.87
2022-09-07T17:29:07.430Z,12.30
2022-09-07T17:34:26.418Z,15.87
2022-09-07T17:36:54.479Z,15.57
2022-09-07T17:39:22.973Z,24.37
2022-09-07T17:41:52.911Z,17.93
2022-09-07T17:44:21.511Z,17.23
2022-09-07T17:46:51.254Z,11.27
2022-09-07T17:49:19.930Z,11.30
2022-09-07T17:51:48.288Z,11.00
2022-09-07T17:54:18.054Z,13.37
2022-09-07T17:56:47.720Z,16.30
2022-09-07T18:02:05.561Z,11.80
2022-09-07T18:04:35.699Z,17.00
2022-09-07T18:07:03.795Z,16.93
2022-09-07T18:09:32.140Z,14.13
2022-09-07T18:12:00.534Z,11.73
2022-09-07T18:14:30.050Z,12.83
2022-09-07T18:16:59.164Z,11.80
2022-09-07T18:19:28.738Z,11.30
2022-09-07T18:21:57.211Z,33.10
2022-09-07T18:24:25.840Z,20.63
2022-09-07T18:26:55.083Z,16.17
2022-09-07T18:29:30.205Z,13.50
2022-09-07T18:32:00.518Z,13.67
2022-09-07T18:34:30.923Z,11.10
2022-09-07T18:36:59.692Z,13.90
2022-09-07T18:39:28.189Z,14.33
2022-09-07T18:41:56.478Z,10.10
2022-09-07T18:47:22.335Z,11.83
2022-09-07T18:49:57.956Z,16.77
2022-09-07T18:55:15.658Z,10.27
2022-09-07T18:57:44.892Z,14.23
2022-09-07T19:00:14.828Z,16.50
2022-09-07T19:02:43.354Z,14.10
2022-09-07T19:08:03.699Z,21.40
2022-09-07T19:10:35.257Z,14.93
2022-09-07T19:13:03.471Z,15.17
2022-09-07T19:15:36.849Z,12.57
2022-09-07T19:18:06.756Z,9.00
2022-09-07T19:20:37.069Z,8.70
2022-09-07T19:23:05.613Z,11.20
2022-09-07T19:25:33.654Z,11.37
2022-09-07T19:28:02.018Z,10.87
2022-09-07T19:30:30.476Z,10.73
2022-09-07T19:33:03.983Z,10.93
2022-09-07T19:35:37.245Z,10.20
2022-09-07T19:38:05.847Z,10.83
2022-09-07T19:40:34.481Z,11.87
2022-09-07T19:43:02.513Z,17.97
2022-09-07T19:45:30.604Z,19.53
2022-09-07T19:47:58.889Z,18.60
2022-09-07T19:50:26.912Z,16.67
2022-09-07T19:52:56.626Z,18.37
2022-09-07T19:55:24.719Z,24.60
2022-09-07T19:57:52.682Z,19.67
2022-09-07T20:00:20.892Z,16.17
2022-09-07T20:02:49.927Z,21.43
2022-09-07T20:05:18.188Z,20.10
2022-09-07T20:07:46.197Z,19.20
2022-09-07T20:10:15.647Z,14.97
2022-09-07T20:12:43.766Z,14.90
2022-09-07T20:15:11.935Z,17.63
2022-09-07T20:17:39.994Z,14.40
2022-09-07T20:20:09.285Z,18.13
2022-09-07T20:22:37.256Z,16.93
2022-09-07T20:25:07.572Z,24.70
2022-09-07T20:27:39.634Z,27.50
2022-09-07T20:30:08.966Z,23.90
2022-09-07T20:32:37.021Z,32.77
2022-09-07T20:35:05.275Z,19.33
2022-09-07T20:37:34.071Z,77.27
2022-09-07T20:40:02.310Z,40.07
2022-09-07T20:42:30.599Z,19.00
2022-09-07T20:45:00.038Z,37.40
2022-09-07T20:47:28.895Z,17.20
2022-09-07T20:49:56.909Z,16.87
2022-09-07T20:52:24.898Z,28.27
2022-09-07T20:54:52.901Z,18.33
2022-09-07T20:57:20.933Z,16.70
2022-09-07T20:59:48.943Z,18.70
2022-09-07T21:02:18.438Z,14.10
2022-09-07T21:04:46.526Z,15.90
2022-09-07T21:07:14.579Z,16.90
2022-09-07T21:09:42.600Z,23.93
2022-09-07T21:12:10.603Z,68.43
2022-09-07T21:14:38.607Z,12.60
2022-09-07T21:17:06.659Z,17.30
2022-09-07T21:19:36.845Z,11.30
2022-09-07T21:22:04.927Z,10.87
2022-09-07T21:24:33.073Z,89.80
2022-09-07T21:27:01.058Z,24.87
2022-09-07T21:29:29.055Z,17.47
2022-09-07T21:31:57.228Z,12.67
2022-09-07T21:34:25.329Z,10.70
2022-09-07T21:36:54.760Z,9.50
2022-09-07T21:39:22.794Z,17.43
2022-09-07T21:41:50.819Z,12.27
2022-09-07T21:44:19.101Z,26.43
2022-09-07T21:46:47.436Z,14.00
2022-09-07T21:49:15.524Z,12.83
2022-09-07T21:51:43.588Z,12.77
2022-09-07T21:54:13.018Z,12.53
2022-09-07T21:56:44.520Z,12.63
2022-09-07T21:59:14.902Z,21.23
2022-09-07T22:01:42.983Z,61.70
2022-09-07T22:04:11.003Z,26.13
2022-09-07T22:06:39.843Z,13.60
2022-09-07T22:09:08.362Z,10.50
2022-09-07T22:11:37.793Z,14.47
2022-09-07T22:14:07.059Z,12.87
2022-09-07T22:16:36.092Z,29.00
2022-09-07T22:19:04.408Z,59.60
2022-09-07T22:21:32.578Z,43.47
2022-09-07T22:24:02.104Z,32.80
2022-09-07T22:26:32.263Z,12.90
2022-09-07T22:29:01.728Z,12.13
2022-09-07T22:31:31.065Z,42.30
2022-09-07T22:34:00.266Z,27.63
2022-09-07T22:36:30.837Z,15.57
2022-09-07T22:39:01.276Z,12.73
2022-09-07T22:41:31.235Z,10.53
2022-09-07T22:44:01.185Z,12.90
2022-09-07T22:46:31.106Z,12.40
2022-09-07T22:49:00.205Z,13.00
2022-09-07T22:51:28.546Z,12.60
2022-09-07T22:53:57.565Z,13.23
2022-09-07T22:56:28.042Z,16.80
2022-09-07T22:58:57.738Z,32.77
2022-09-07T23:01:29.455Z,15.47
2022-09-07T23:03:57.977Z,14.17
2022-09-07T23:06:28.218Z,11.73
2022-09-07T23:08:59.488Z,13.03
2022-09-07T23:11:27.836Z,21.50
2022-09-07T23:13:58.143Z,19.60
2022-09-07T23:16:29.061Z,15.97
2022-09-07T23:18:58.696Z,18.47
2022-09-07T23:21:27.140Z,15.40
2022-09-07T23:23:56.950Z,20.33
2022-09-07T23:26:28.745Z,16.50
2022-09-07T23:28:59.692Z,63.83
2022-09-07T23:31:30.316Z,41.30
2022-09-07T23:33:58.884Z,16.20
2022-09-07T23:36:27.406Z,15.90
2022-09-07T23:38:56.387Z,16.43
2022-09-07T23:41:25.275Z,78.97
2022-09-07T23:43:53.631Z,18.10
2022-09-07T23:46:21.938Z,43.83
2022-09-07T23:48:51.752Z,20.23
2022-09-07T23:51:23.806Z,26.27
2022-09-07T23:53:53.016Z,17.87
2022-09-07T23:56:21.353Z,18.80
2022-09-07T23:58:49.350Z,31.57
